Time;durP1;ratioP1;P1;durP2;ratioP2;P2;SDS_P1;SDS_P2;PMS_P1;PMS_P2;Temp;Humidity;BMP_temperature;BMP_pressure;BME280_temperature;BME280_humidity;BME280_pressure;Samples;Min_cycle;Max_cycle;Signal;HPM_P1;HPM_P2
2023/02/02 00:01:52;;;;;;;0.50;0.50;;;3.80;99.90;;;;;;5055186;28;20432;-69
2023/02/02 00:04:25;;;;;;;0.35;0.35;;;3.80;99.90;;;;;;5055504;28;20177;-69
2023/02/02 00:06:51;;;;;;;0.77;0.73;;;3.80;99.90;;;;;;5055483;28;20166;-69
2023/02/02 00:09:17;;;;;;;0.30;0.30;;;3.80;99.90;;;;;;5055484;28;20184;-69
2023/02/02 00:11:44;;;;;;;0.73;0.73;;;3.80;99.90;;;;;;5054976;28;20435;-69
2023/02/02 00:14:11;;;;;;;0.60;0.60;;;3.90;99.90;;;;;;5055263;28;20178;-69
2023/02/02 00:16:39;;;;;;;0.43;0.43;;;3.90;99.90;;;;;;5055297;28;20177;-69
2023/02/02 00:19:08;;;;;;;0.50;0.50;;;3.90;99.90;;;;;;5055177;28;20177;-69
2023/02/02 00:21:35;;;;;;;0.40;0.40;;;4.30;99.90;;;;;;5055203;28;20693;-69
2023/02/02 00:24:00;;;;;;;0.80;0.80;;;3.90;99.90;;;;;;5054854;28;20631;-69
2023/02/02 00:26:26;;;;;;;1.53;1.53;;;3.90;99.90;;;;;;5055025;28;20185;-69
2023/02/02 00:28:52;;;;;;;0.40;0.40;;;3.70;99.90;;;;;;5055007;28;20409;-69
2023/02/02 00:31:18;;;;;;;0.40;0.40;;;3.70;99.90;;;;;;5054999;28;20440;-69
2023/02/02 00:33:45;;;;;;;1.13;0.63;;;3.70;99.90;;;;;;5054645;28;20181;-69
2023/02/02 00:36:11;;;;;;;0.77;0.77;;;3.70;99.90;;;;;;5055177;28;20178;-69
2023/02/02 00:38:37;;;;;;;0.50;0.50;;;3.80;99.90;;;;;;5054658;28;20312;-69
2023/02/02 00:41:03;;;;;;;0.40;0.40;;;3.90;99.90;;;;;;5054810;28;20198;-69
2023/02/02 00:43:29;;;;;;;2.60;1.40;;;3.90;99.90;;;;;;5054483;28;20741;-69
2023/02/02 00:45:55;;;;;;;1.23;1.20;;;3.90;99.90;;;;;;5054867;28;20253;-69
2023/02/02 00:48:20;;;;;;;0.40;0.40;;;3.80;99.90;;;;;;5054546;28;20178;-69
2023/02/02 00:50:46;;;;;;;0.40;0.40;;;3.70;99.90;;;;;;5054401;28;20428;-69
2023/02/02 00:53:11;;;;;;;0.40;0.40;;;3.70;99.90;;;;;;5054288;28;20174;-69
2023/02/02 00:55:37;;;;;;;1.13;0.50;;;3.80;99.90;;;;;;5054464;28;20174;-69
2023/02/02 00:58:03;;;;;;;0.40;0.40;;;3.60;99.90;;;;;;5054431;28;20206;-69
2023/02/02 01:00:28;;;;;;;0.50;0.50;;;3.60;99.90;;;;;;5054274;28;20210;-69
2023/02/02 01:02:54;;;;;;;0.40;0.40;;;3.60;99.90;;;;;;5054037;28;20636;-69
2023/02/02 01:05:21;;;;;;;1.17;0.82;;;3.70;99.90;;;;;;5054591;28;20231;-69
2023/02/02 01:07:47;;;;;;;0.57;0.57;;;3.70;99.90;;;;;;5054196;28;20170;-69
2023/02/02 01:10:18;;;;;;;0.40;0.40;;;3.70;99.90;;;;;;5054051;28;20678;-69
2023/02/02 01:12:44;;;;;;;0.60;0.60;;;3.70;99.90;;;;;;5053970;28;20174;-68
2023/02/02 01:15:11;;;;;;;0.40;0.40;;;3.80;99.90;;;;;;5054014;28;20216;-69
2023/02/02 01:17:37;;;;;;;5.55;1.48;;;3.70;99.90;;;;;;5052734;28;20210;-69
2023/02/02 01:20:05;;;;;;;0.40;0.40;;;3.80;99.90;;;;;;5053739;28;20206;-69
2023/02/02 01:22:32;;;;;;;1.05;0.82;;;3.80;99.90;;;;;;5053961;28;20163;-69
2023/02/02 01:24:58;;;;;;;0.40;0.40;;;3.70;99.90;;;;;;5053831;28;20193;-69
2023/02/02 01:27:24;;;;;;;0.40;0.40;;;3.70;99.90;;;;;;5053974;28;20166;-69
2023/02/02 01:29:50;;;;;;;0.45;0.45;;;3.80;99.90;;;;;;5053908;28;20432;-69
2023/02/02 01:32:15;;;;;;;0.40;0.40;;;3.90;99.90;;;;;;5053565;28;20206;-69
2023/02/02 01:34:42;;;;;;;0.70;0.70;;;3.90;99.90;;;;;;5054157;28;20170;-69
2023/02/02 01:37:09;;;;;;;0.40;0.40;;;3.80;99.90;;;;;;5053717;28;20178;-69
2023/02/02 01:39:34;;;;;;;0.40;0.40;;;3.80;99.90;;;;;;5053712;28;20194;-69
2023/02/02 01:42:00;;;;;;;0.40;0.40;;;3.70;99.90;;;;;;5053342;28;20182;-68
2023/02/02 01:45:03;;;;;;;1.67;1.33;;;3.50;99.90;;;;;;5053827;28;20192;-69
2023/02/02 01:47:35;;;;;;;0.50;0.50;;;3.40;99.90;;;;;;5053566;28;20169;-69
2023/02/02 01:50:01;;;;;;;0.40;0.40;;;3.50;99.90;;;;;;5053679;28;20190;-69
2023/02/02 01:52:30;;;;;;;0.40;0.40;;;3.60;99.90;;;;;;5053419;28;20657;-69
2023/02/02 01:55:07;;;;;;;0.45;0.45;;;3.60;99.90;;;;;;5053354;28;20176;-69
2023/02/02 01:57:39;;;;;;;0.30;0.30;;;3.60;99.90;;;;;;5053667;28;20169;-68
2023/02/02 02:00:08;;;;;;;0.98;0.95;;;3.70;99.90;;;;;;5053281;28;20197;-69
2023/02/02 02:02:36;;;;;;;0.45;0.45;;;3.70;99.90;;;;;;5052816;28;20533;-69
2023/02/02 02:05:03;;;;;;;1.17;1.13;;;3.50;99.90;;;;;;5053442;28;20261;-69
2023/02/02 02:07:29;;;;;;;0.40;0.40;;;3.40;99.90;;;;;;5053410;28;20166;-69
2023/02/02 02:09:55;;;;;;;3.07;2.87;;;3.40;99.90;;;;;;5053244;28;20178;-69
2023/02/02 02:12:20;;;;;;;0.43;0.43;;;3.60;99.90;;;;;;5053105;28;20921;-69
2023/02/02 02:17:57;;;;;;;0.40;0.40;;;3.60;99.90;;;;;;5053757;28;20220;-69
2023/02/02 02:27:38;;;;;;;0.40;0.40;;;3.80;99.90;;;;;;5053460;28;20223;-69
2023/02/02 02:30:46;;;;;;;0.47;0.47;;;3.80;99.90;;;;;;5052755;28;20202;-69
2023/02/02 02:33:20;;;;;;;0.50;0.50;;;3.80;99.90;;;;;;5051294;28;20598;-68
2023/02/02 02:36:06;;;;;;;0.30;0.30;;;3.60;99.90;;;;;;5053142;28;20170;-69
2023/02/02 02:38:48;;;;;;;0.35;0.35;;;3.50;99.90;;;;;;5052890;28;20221;-69
2023/02/02 02:41:20;;;;;;;0.63;0.63;;;3.40;99.90;;;;;;5053195;28;20259;-69
2023/02/02 02:43:59;;;;;;;0.93;0.50;;;3.40;99.90;;;;;;5052885;28;20632;-69
2023/02/02 02:46:25;;;;;;;0.70;0.70;;;3.50;99.90;;;;;;5053101;28;20166;-69
2023/02/02 02:48:51;;;;;;;0.40;0.40;;;3.60;99.90;;;;;;5053074;28;20182;-69
2023/02/02 02:51:38;;;;;;;0.82;0.60;;;3.70;99.90;;;;;;5053063;28;20536;-69
2023/02/02 02:54:04;;;;;;;0.38;0.38;;;3.80;99.90;;;;;;5052816;28;20542;-69
2023/02/02 02:56:51;;;;;;;0.40;0.40;;;3.70;99.90;;;;;;5052915;28;20178;-69
2023/02/02 02:59:25;;;;;;;2.42;2.38;;;3.90;99.90;;;;;;5053329;28;20440;-69
2023/02/02 03:02:00;;;;;;;0.40;0.40;;;4.00;99.90;;;;;;5052777;28;20561;-69
2023/02/02 03:04:48;;;;;;;0.50;0.50;;;4.00;99.90;;;;;;5052977;28;20643;-69
2023/02/02 03:07:25;;;;;;;0.40;0.40;;;3.90;99.90;;;;;;5053083;28;20170;-69
2023/02/02 03:09:53;;;;;;;1.25;1.25;;;3.80;99.90;;;;;;5052937;28;20268;-69
2023/02/02 03:12:19;;;;;;;0.30;0.30;;;3.60;99.90;;;;;;5052465;28;20260;-69
2023/02/02 03:14:45;;;;;;;0.30;0.30;;;3.60;99.90;;;;;;5053249;28;20253;-69
2023/02/02 03:17:10;;;;;;;1.57;0.90;;;3.60;99.90;;;;;;5056311;28;20303;-69
2023/02/02 03:19:36;;;;;;;0.50;0.50;;;3.70;99.90;;;;;;5056382;28;20219;-69
2023/02/02 03:22:02;;;;;;;0.40;0.40;;;3.80;99.90;;;;;;5056128;28;20193;-69
2023/02/02 03:24:27;;;;;;;1.33;1.27;;;3.90;99.90;;;;;;5056309;28;20166;-69
2023/02/02 03:26:53;;;;;;;0.40;0.40;;;3.80;99.90;;;;;;5056267;28;20245;-69
2023/02/02 03:29:19;;;;;;;3.90;1.80;;;3.80;99.90;;;;;;5054823;28;20697;-69
2023/02/02 03:31:45;;;;;;;0.30;0.30;;;3.80;99.90;;;;;;5055745;28;20276;-69
2023/02/02 03:34:11;;;;;;;1.40;1.40;;;3.90;99.90;;;;;;5056128;28;20401;-69
2023/02/02 03:36:36;;;;;;;0.40;0.40;;;3.90;99.90;;;;;;5055924;28;20247;-69
2023/02/02 03:39:02;;;;;;;0.40;0.40;;;3.90;99.90;;;;;;5056493;28;20178;-69
2023/02/02 03:41:28;;;;;;;0.40;0.40;;;3.80;99.90;;;;;;5055940;28;20276;-69
2023/02/02 03:43:53;;;;;;;0.40;0.40;;;3.70;99.90;;;;;;5055641;28;20166;-69
2023/02/02 03:46:19;;;;;;;1.00;1.00;;;3.70;99.90;;;;;;5055766;28;20166;-69
2023/02/02 03:48:44;;;;;;;0.50;0.50;;;3.70;99.90;;;;;;5055771;28;20170;-69
2023/02/02 03:51:13;;;;;;;0.47;0.47;;;3.90;99.90;;;;;;5055598;28;20190;-69
2023/02/02 03:53:39;;;;;;;0.70;0.70;;;3.90;99.90;;;;;;5055592;28;20512;-69
2023/02/02 03:56:05;;;;;;;3.45;1.52;;;3.90;99.90;;;;;;5055686;28;20576;-69
2023/02/02 03:58:31;;;;;;;0.50;0.50;;;3.80;99.90;;;;;;5055541;28;20241;-69
2023/02/02 04:01:10;;;;;;;0.30;0.30;;;3.80;99.90;;;;;;5055302;28;20233;-69
2023/02/02 04:03:35;;;;;;;0.50;0.50;;;3.90;99.90;;;;;;5054131;28;20201;-69
2023/02/02 04:06:01;;;;;;;1.33;0.67;;;3.80;99.90;;;;;;5054307;28;20587;-69
2023/02/02 04:08:27;;;;;;;0.30;0.30;;;3.90;99.90;;;;;;5055535;28;20177;-69
2023/02/02 04:10:53;;;;;;;0.50;0.50;;;3.90;99.90;;;;;;5055367;28;20197;-69
2023/02/02 04:13:19;;;;;;;0.40;0.40;;;3.90;99.90;;;;;;5055253;28;20178;-69
2023/02/02 04:15:44;;;;;;;0.30;0.30;;;3.90;99.90;;;;;;5055227;28;20405;-69
2023/02/02 04:18:10;;;;;;;0.40;0.40;;;3.80;99.90;;;;;;5055280;28;20170;-69
2023/02/02 04:20:36;;;;;;;0.87;0.87;;;3.90;99.90;;;;;;5055150;28;20205;-69
2023/02/02 04:23:01;;;;;;;0.53;0.53;;;3.80;99.90;;;;;;5054829;28;20170;-69
2023/02/02 04:25:27;;;;;;;0.50;0.50;;;3.90;99.90;;;;;;5054812;28;20162;-69
2023/02/02 04:27:52;;;;;;;0.47;0.47;;;3.90;99.90;;;;;;5053702;28;20167;-69
2023/02/02 04:30:21;;;;;;;0.30;0.30;;;3.80;99.90;;;;;;5054824;28;20201;-69
2023/02/02 04:32:46;;;;;;;0.50;0.50;;;3.70;99.90;;;;;;5054706;28;20188;-69
2023/02/02 04:35:12;;;;;;;1.07;1.07;;;3.60;99.90;;;;;;5055022;28;20690;-69
2023/02/02 04:37:37;;;;;;;0.50;0.50;;;3.80;99.90;;;;;;5054809;28;20679;-69
2023/02/02 04:40:04;;;;;;;5.97;1.07;;;3.80;99.90;;;;;;5054556;28;20678;-69
2023/02/02 04:42:31;;;;;;;0.38;0.38;;;3.80;99.90;;;;;;5054440;28;20170;-69
2023/02/02 04:44:57;;;;;;;0.30;0.30;;;3.80;99.90;;;;;;5054808;28;20167;-69
2023/02/02 04:47:23;;;;;;;1.07;1.07;;;3.80;99.90;;;;;;5054801;28;20170;-69
2023/02/02 04:49:49;;;;;;;0.50;0.50;;;3.80;99.90;;;;;;5054600;28;20178;-68
2023/02/02 04:52:14;;;;;;;0.40;0.40;;;3.80;99.90;;;;;;5048533;28;20520;-69
2023/02/02 04:54:40;;;;;;;0.60;0.60;;;3.60;99.90;;;;;;5051066;28;20186;-69
2023/02/02 04:57:06;;;;;;;0.30;0.30;;;3.60;99.90;;;;;;5053985;28;20174;-69
2023/02/02 04:59:31;;;;;;;0.47;0.47;;;3.70;99.90;;;;;;5053585;28;20701;-69
2023/02/02 05:02:00;;;;;;;1.40;1.37;;;3.80;99.90;;;;;;5054054;28;20281;-69
2023/02/02 05:04:26;;;;;;;0.40;0.40;;;3.80;99.90;;;;;;5054365;28;20635;-69
2023/02/02 05:06:52;;;;;;;0.70;0.70;;;3.90;99.90;;;;;;5054350;28;20232;-69
2023/02/02 05:09:18;;;;;;;0.60;0.60;;;3.70;99.90;;;;;;5054324;28;20404;-69
2023/02/02 05:11:43;;;;;;;0.77;0.77;;;3.70;99.90;;;;;;5053872;28;20524;-69
2023/02/02 05:14:10;;;;;;;0.77;0.77;;;3.70;99.90;;;;;;5054158;28;20266;-69
2023/02/02 05:16:35;;;;;;;2.20;2.10;;;3.70;99.90;;;;;;5054141;28;20170;-69
2023/02/02 05:19:02;;;;;;;0.40;0.40;;;3.80;99.90;;;;;;5054118;28;20166;-69
2023/02/02 05:21:27;;;;;;;0.50;0.50;;;3.80;99.90;;;;;;5053792;28;20198;-68
2023/02/02 05:23:53;;;;;;;0.40;0.40;;;3.70;99.90;;;;;;5053762;28;20197;-69
2023/02/02 05:26:22;;;;;;;0.60;0.60;;;3.70;99.90;;;;;;5053903;28;20163;-68
2023/02/02 05:28:48;;;;;;;0.68;0.68;;;3.80;99.90;;;;;;5054023;28;20198;-69
2023/02/02 05:31:13;;;;;;;0.43;0.43;;;3.80;99.90;;;;;;5053706;28;20201;-69
2023/02/02 05:33:39;;;;;;;1.27;1.17;;;3.60;99.90;;;;;;5053526;28;20592;-69
2023/02/02 05:36:05;;;;;;;0.50;0.50;;;3.50;99.90;;;;;;5053871;28;20170;-69
2023/02/02 05:38:31;;;;;;;0.40;0.40;;;3.50;99.90;;;;;;5052874;28;20190;-69
2023/02/02 05:40:57;;;;;;;0.60;0.60;;;3.40;99.90;;;;;;5053639;28;20212;-69
2023/02/02 05:43:27;;;;;;;0.40;0.40;;;3.50;99.90;;;;;;5053708;28;20168;-69
2023/02/02 05:45:53;;;;;;;1.77;1.77;;;3.50;99.90;;;;;;5053874;28;20560;-69
2023/02/02 05:48:18;;;;;;;0.40;0.40;;;3.40;99.90;;;;;;5053755;28;20170;-69
2023/02/02 05:50:54;;;;;;;21.07;2.67;;;3.50;99.90;;;;;;5053412;28;20190;-69
2023/02/02 05:53:20;;;;;;;0.45;0.45;;;3.40;99.90;;;;;;5053535;28;20559;-68
2023/02/02 05:55:45;;;;;;;0.60;0.57;;;3.20;99.90;;;;;;5053705;28;20178;-69
2023/02/02 05:58:11;;;;;;;1.10;1.10;;;3.30;99.90;;;;;;5053612;28;20245;-69
2023/02/02 06:00:36;;;;;;;0.50;0.50;;;3.40;99.90;;;;;;5053550;28;20206;-69
2023/02/02 06:03:02;;;;;;;0.87;0.87;;;3.40;99.90;;;;;;5053162;28;20173;-69
2023/02/02 06:05:28;;;;;;;0.30;0.30;;;3.40;99.90;;;;;;5053541;28;20166;-69
2023/02/02 06:07:53;;;;;;;1.10;1.10;;;3.40;99.90;;;;;;5053535;28;20170;-69
2023/02/02 06:10:19;;;;;;;0.40;0.40;;;3.50;99.90;;;;;;5053407;28;20193;-69
2023/02/02 06:12:44;;;;;;;0.60;0.60;;;3.60;99.90;;;;;;5053077;28;20174;-69
2023/02/02 06:15:10;;;;;;;0.47;0.47;;;3.70;99.90;;;;;;5053446;28;20174;-69
2023/02/02 06:17:36;;;;;;;0.50;0.50;;;3.70;99.90;;;;;;5053409;28;20166;-68
2023/02/02 06:20:03;;;;;;;0.80;0.80;;;3.70;99.90;;;;;;5053228;28;20198;-69
2023/02/02 06:22:31;;;;;;;0.30;0.30;;;3.60;99.90;;;;;;5053036;28;20401;-69
2023/02/02 06:24:57;;;;;;;0.40;0.40;;;3.40;99.90;;;;;;5053253;28;20224;-69
2023/02/02 06:27:23;;;;;;;0.50;0.50;;;3.40;99.90;;;;;;5053348;28;20158;-69
2023/02/02 06:29:48;;;;;;;0.93;0.93;;;3.30;99.90;;;;;;5053672;28;20184;-69
2023/02/02 06:32:14;;;;;;;0.50;0.50;;;3.40;99.90;;;;;;5052878;28;20222;-69
2023/02/02 06:34:40;;;;;;;2.77;1.73;;;3.50;99.90;;;;;;5053080;28;20201;-69
2023/02/02 06:37:06;;;;;;;0.33;0.33;;;3.60;99.90;;;;;;5052913;28;20607;-69
2023/02/02 06:39:31;;;;;;;0.40;0.40;;;3.70;99.90;;;;;;5053071;28;20213;-69
2023/02/02 06:41:57;;;;;;;3.27;1.53;;;3.70;99.90;;;;;;5052766;28;20720;-69
2023/02/02 06:44:22;;;;;;;0.60;0.60;;;3.70;99.90;;;;;;5053146;28;20308;-69
2023/02/02 06:46:48;;;;;;;0.30;0.30;;;3.80;99.90;;;;;;5053094;28;20651;-69
2023/02/02 06:49:13;;;;;;;0.40;0.40;;;3.90;99.90;;;;;;5054567;28;20167;-69
2023/02/02 06:51:39;;;;;;;0.40;0.40;;;4.00;99.90;;;;;;5056451;28;20186;-69
2023/02/02 06:54:05;;;;;;;0.50;0.50;;;4.10;99.90;;;;;;5056811;28;20667;-69
2023/02/02 06:56:30;;;;;;;0.40;0.40;;;4.10;99.90;;;;;;5056821;28;20220;-69
2023/02/02 06:58:56;;;;;;;0.40;0.40;;;4.00;99.90;;;;;;5056903;28;20194;-69
2023/02/02 07:01:22;;;;;;;0.60;0.50;;;3.80;99.90;;;;;;5056467;28;20706;-69
2023/02/02 07:03:49;;;;;;;0.47;0.47;;;3.70;99.90;;;;;;5056419;28;20189;-69
2023/02/02 07:06:21;;;;;;;1.40;1.35;;;3.70;99.90;;;;;;5056766;28;20158;-69
2023/02/02 07:08:48;;;;;;;0.30;0.30;;;3.80;99.90;;;;;;5056707;28;20174;-69
2023/02/02 07:11:15;;;;;;;0.35;0.35;;;3.70;99.90;;;;;;5056531;28;20186;-69
2023/02/02 07:13:40;;;;;;;0.52;0.52;;;3.60;99.90;;;;;;5056849;28;20659;-68
2023/02/02 07:16:08;;;;;;;0.40;0.40;;;3.60;99.90;;;;;;5056766;28;20206;-69
2023/02/02 07:18:35;;;;;;;0.40;0.40;;;3.60;99.90;;;;;;5056556;28;20177;-69
2023/02/02 07:21:02;;;;;;;0.40;0.40;;;3.50;99.90;;;;;;5056443;28;20209;-69
2023/02/02 07:23:28;;;;;;;0.50;0.50;;;3.40;99.90;;;;;;5056415;28;20284;-69
2023/02/02 07:26:01;;;;;;;0.50;0.50;;;3.40;99.90;;;;;;5056548;28;20202;-69
2023/02/02 07:28:27;;;;;;;0.40;0.30;;;3.50;99.90;;;;;;5056699;28;20491;-69
2023/02/02 07:30:53;;;;;;;0.40;0.40;;;3.50;99.90;;;;;;5056180;28;20198;-69
2023/02/02 07:33:19;;;;;;;0.33;0.33;;;3.60;99.90;;;;;;5056091;28;20172;-69
2023/02/02 07:35:44;;;;;;;0.57;0.57;;;3.60;99.90;;;;;;5056311;28;20177;-69
2023/02/02 07:38:10;;;;;;;0.50;0.50;;;3.60;99.90;;;;;;5056285;28;20190;-69
2023/02/02 07:40:35;;;;;;;0.40;0.40;;;3.80;99.90;;;;;;5056018;28;20276;-69
2023/02/02 07:43:01;;;;;;;0.83;0.83;;;3.80;99.90;;;;;;5055945;28;20167;-69
2023/02/02 07:45:27;;;;;;;0.57;0.57;;;3.70;99.90;;;;;;5055872;28;20241;-69
2023/02/02 07:47:59;;;;;;;0.60;0.60;;;3.70;99.90;;;;;;5055943;28;20169;-69
2023/02/02 07:50:26;;;;;;;0.50;0.50;;;3.80;99.90;;;;;;5056002;28;20273;-69
2023/02/02 07:52:52;;;;;;;0.43;0.43;;;3.80;99.90;;;;;;5055628;28;20553;-69
2023/02/02 07:55:18;;;;;;;0.50;0.50;;;3.90;99.90;;;;;;5055774;28;20257;-69
2023/02/02 07:57:44;;;;;;;0.40;0.40;;;3.90;99.90;;;;;;5056300;28;20181;-69
2023/02/02 08:00:10;;;;;;;3.03;1.43;;;4.00;99.90;;;;;;5054938;28;20227;-69
2023/02/02 08:02:36;;;;;;;0.50;0.50;;;4.00;99.90;;;;;;5055114;28;20305;-69
2023/02/02 08:05:02;;;;;;;0.70;0.70;;;3.90;99.90;;;;;;5055790;28;20253;-69
2023/02/02 08:07:27;;;;;;;0.40;0.40;;;4.00;99.90;;;;;;5054082;28;20220;-70
2023/02/02 08:09:53;;;;;;;0.40;0.40;;;4.10;99.90;;;;;;5055576;28;20639;-71
2023/02/02 08:12:23;;;;;;;0.40;0.40;;;4.10;99.90;;;;;;5055024;28;20206;-71
2023/02/02 08:14:49;;;;;;;0.50;0.50;;;4.10;99.90;;;;;;5054856;28;20177;-69
2023/02/02 08:17:14;;;;;;;3.00;2.83;;;4.00;99.90;;;;;;5055467;28;20178;-69
2023/02/02 08:19:40;;;;;;;4.10;1.80;;;4.10;99.90;;;;;;5053006;28;20277;-69
2023/02/02 08:22:05;;;;;;;0.50;0.50;;;4.10;99.90;;;;;;5054932;28;20169;-69
2023/02/02 08:24:31;;;;;;;0.40;0.40;;;4.20;99.90;;;;;;5055170;28;20654;-69
2023/02/02 08:26:56;;;;;;;0.40;0.40;;;4.10;99.90;;;;;;5055175;28;20166;-69
2023/02/02 08:29:22;;;;;;;0.40;0.40;;;4.10;99.90;;;;;;5055114;28;20167;-69
2023/02/02 08:31:48;;;;;;;0.30;0.30;;;4.00;99.90;;;;;;5054915;28;20248;-69
2023/02/02 08:34:13;;;;;;;0.60;0.60;;;4.00;99.90;;;;;;5055259;28;20253;-69
2023/02/02 08:36:40;;;;;;;0.40;0.40;;;3.90;99.90;;;;;;5055175;28;20162;-69
2023/02/02 08:39:09;;;;;;;1.45;1.42;;;3.90;99.90;;;;;;5055049;28;20166;-69
2023/02/02 08:41:38;;;;;;;1.17;1.17;;;3.80;99.90;;;;;;5055160;28;20202;-69
2023/02/02 08:44:05;;;;;;;0.70;0.70;;;3.80;99.90;;;;;;5055052;28;20237;-69
2023/02/02 08:46:31;;;;;;;0.90;0.90;;;3.90;99.90;;;;;;5054968;28;20170;-69
2023/02/02 08:48:57;;;;;;;0.70;0.70;;;4.00;99.90;;;;;;5055054;28;20627;-69
2023/02/02 08:51:23;;;;;;;0.43;0.43;;;4.00;99.90;;;;;;5053320;28;20198;-72
2023/02/02 08:53:49;;;;;;;0.30;0.30;;;3.90;99.90;;;;;;5054299;28;20181;-71
2023/02/02 08:56:19;;;;;;;0.40;0.40;;;3.90;99.90;;;;;;5052584;28;20174;-71
2023/02/02 08:58:47;;;;;;;0.57;0.57;;;3.80;99.90;;;;;;5053804;28;20173;-71
2023/02/02 09:01:19;;;;;;;1.70;0.60;;;3.80;99.90;;;;;;5054175;28;20292;-71
2023/02/02 09:03:45;;;;;;;3.15;1.30;;;3.80;99.90;;;;;;5054654;28;20166;-71
2023/02/02 09:06:14;;;;;;;1.40;1.25;;;3.90;99.90;;;;;;5053410;28;20166;-72
2023/02/02 09:08:40;;;;;;;0.40;0.40;;;4.00;99.90;;;;;;5054262;28;20508;-71
2023/02/02 09:11:09;;;;;;;0.40;0.40;;;3.90;99.90;;;;;;5054304;28;20198;-72
2023/02/02 09:13:36;;;;;;;0.75;0.75;;;3.90;99.90;;;;;;5053874;28;20174;-69
2023/02/02 09:16:04;;;;;;;0.38;0.38;;;4.00;99.90;;;;;;5054428;28;20190;-69
2023/02/02 09:18:32;;;;;;;0.82;0.82;;;4.00;99.90;;;;;;5054524;28;20180;-69
2023/02/02 09:21:06;;;;;;;0.60;0.60;;;4.00;99.90;;;;;;5054588;28;20244;-69
2023/02/02 09:23:35;;;;;;;0.30;0.30;;;4.00;99.90;;;;;;5053954;28;20252;-69
2023/02/02 09:26:25;;;;;;;0.70;0.70;;;3.90;99.90;;;;;;5054151;28;20201;-69
2023/02/02 09:29:02;;;;;;;0.40;0.40;;;4.00;99.90;;;;;;5054542;28;20177;-71
2023/02/02 09:31:32;;;;;;;0.40;0.40;;;4.10;99.90;;;;;;5053970;28;20275;-71
2023/02/02 09:34:07;;;;;;;0.40;0.40;;;4.20;99.90;;;;;;5053633;28;20200;-70
2023/02/02 09:36:33;;;;;;;4.50;1.90;;;4.20;99.90;;;;;;5052723;28;20670;-70
2023/02/02 09:38:58;;;;;;;1.30;1.30;;;4.30;99.90;;;;;;5053899;28;20182;-70
2023/02/02 09:41:50;;;;;;;0.40;0.40;;;4.30;99.90;;;;;;5054132;28;20288;-72
2023/02/02 09:44:19;;;;;;;1.35;1.10;;;4.30;99.90;;;;;;5052745;28;20198;-72
2023/02/02 09:47:12;;;;;;;0.50;0.50;;;4.40;99.90;;;;;;5053855;28;20166;-72
2023/02/02 09:49:57;;;;;;;0.77;0.77;;;4.40;99.90;;;;;;5054082;28;20172;-73
2023/02/02 09:52:44;;;;;;;0.95;0.95;;;4.40;99.90;;;;;;5054008;28;20649;-72
2023/02/02 09:55:21;;;;;;;3.40;3.20;;;4.50;99.90;;;;;;5053792;28;20213;-73
2023/02/02 09:58:00;;;;;;;0.57;0.50;;;4.50;99.90;;;;;;5053998;28;20174;-72
2023/02/02 10:00:26;;;;;;;0.40;0.40;;;4.50;99.90;;;;;;5053831;28;20565;-70
2023/02/02 10:02:59;;;;;;;0.50;0.50;;;4.50;99.90;;;;;;5053350;28;20169;-70
2023/02/02 10:05:42;;;;;;;5.72;1.10;;;4.50;99.90;;;;;;5053435;28;20166;-70
2023/02/02 10:08:16;;;;;;;0.65;0.65;;;4.50;99.90;;;;;;5053249;28;20174;-70
2023/02/02 10:10:43;;;;;;;0.40;0.40;;;4.50;99.90;;;;;;5053568;28;20209;-69
2023/02/02 10:13:20;;;;;;;0.70;0.70;;;4.60;99.90;;;;;;5053436;28;20197;-70
2023/02/02 10:16:02;;;;;;;0.52;0.52;;;4.60;99.90;;;;;;5053374;28;20174;-75
2023/02/02 10:19:00;;;;;;;0.70;0.70;;;4.60;99.90;;;;;;5053693;28;20255;-72
2023/02/02 10:21:37;;;;;;;1.52;1.48;;;4.60;99.90;;;;;;5053815;28;20738;-72
2023/02/02 10:24:03;;;;;;;0.52;0.52;;;4.60;99.90;;;;;;5054522;28;20173;-72
2023/02/02 10:26:37;;;;;;;0.70;0.70;;;4.60;99.90;;;;;;5057595;28;20258;-73
2023/02/02 10:29:45;;;;;;;0.47;0.47;;;4.60;99.90;;;;;;5057741;28;20209;-72
2023/02/02 10:32:13;;;;;;;1.73;1.70;;;4.60;99.90;;;;;;5057240;28;20174;-70
2023/02/02 10:34:55;;;;;;;0.40;0.40;;;4.60;99.90;;;;;;5057363;28;20249;-70
2023/02/02 10:37:27;;;;;;;1.27;1.20;;;4.50;99.90;;;;;;5057203;28;20186;-70
2023/02/02 10:39:58;;;;;;;1.50;1.38;;;4.50;99.90;;;;;;5057285;28;20194;-70
2023/02/02 10:42:32;;;;;;;0.30;0.30;;;4.50;99.90;;;;;;5056063;28;20174;-70
2023/02/02 10:45:02;;;;;;;0.98;0.98;;;4.50;99.90;;;;;;5057113;28;20244;-70
2023/02/02 10:47:33;;;;;;;0.40;0.40;;;4.50;99.90;;;;;;5057384;28;20162;-70
2023/02/02 10:50:13;;;;;;;0.73;0.73;;;4.50;99.90;;;;;;5057067;28;20173;-70
2023/02/02 10:52:59;;;;;;;0.50;0.50;;;4.40;99.90;;;;;;5057036;28;20154;-70
2023/02/02 10:55:36;;;;;;;0.30;0.30;;;4.40;99.90;;;;;;5057001;28;20627;-70
2023/02/02 10:58:17;;;;;;;0.43;0.43;;;4.50;99.90;;;;;;5056999;28;20181;-73
2023/02/02 11:00:50;;;;;;;3.58;3.25;;;4.50;99.90;;;;;;5055298;28;20198;-73
2023/02/02 11:03:19;;;;;;;0.30;0.30;;;4.30;99.90;;;;;;5056405;28;20182;-73
2023/02/02 11:08:37;;;;;;;5.28;0.98;;;4.20;99.90;;;;;;5056393;28;20204;-72
2023/02/02 11:11:09;;;;;;;0.40;0.40;;;4.20;99.90;;;;;;5055140;28;20549;-72
2023/02/02 11:13:49;;;;;;;0.40;0.40;;;4.20;99.90;;;;;;5056224;28;20530;-73
2023/02/02 11:16:14;;;;;;;0.70;0.70;;;4.20;99.90;;;;;;5056797;28;20582;-72
2023/02/02 11:18:44;;;;;;;0.40;0.40;;;4.20;99.90;;;;;;5056360;28;20194;-72
2023/02/02 11:21:25;;;;;;;1.65;1.65;;;4.40;99.90;;;;;;5056612;28;20206;-72
2023/02/02 11:24:01;;;;;;;0.60;0.60;;;4.50;99.90;;;;;;5055799;28;20185;-70
2023/02/02 11:26:41;;;;;;;0.80;0.80;;;4.50;99.90;;;;;;5056117;28;20180;-70
2023/02/02 11:29:15;;;;;;;0.60;0.60;;;4.50;99.90;;;;;;5056086;28;20166;-70
2023/02/02 11:31:41;;;;;;;2.45;2.30;;;4.60;99.90;;;;;;5054718;28;20546;-70
2023/02/02 11:34:14;;;;;;;3.75;3.55;;;4.60;99.90;;;;;;5056028;28;20189;-70
2023/02/02 11:36:39;;;;;;;0.50;0.50;;;4.60;99.90;;;;;;5055256;28;20681;-70
2023/02/02 11:39:20;;;;;;;2.63;2.00;;;4.70;99.90;;;;;;5056562;28;20214;-70
2023/02/02 11:41:46;;;;;;;0.35;0.35;;;4.80;99.90;;;;;;5055706;28;20654;-70
2023/02/02 11:44:34;;;;;;;0.83;0.83;;;4.70;99.90;;;;;;5056118;28;20249;-70
2023/02/02 11:47:03;;;;;;;0.40;0.40;;;4.70;99.90;;;;;;5056297;28;20174;-70
2023/02/02 11:49:41;;;;;;;0.40;0.40;;;4.70;99.90;;;;;;5055789;28;20249;-70
2023/02/02 11:52:16;;;;;;;0.93;0.93;;;4.70;99.90;;;;;;5055576;28;20595;-70
2023/02/02 11:54:47;;;;;;;1.90;0.60;;;4.50;99.90;;;;;;5055783;28;20549;-70
2023/02/02 11:57:21;;;;;;;0.40;0.40;;;4.60;99.90;;;;;;5055793;28;20253;-70
2023/02/02 12:00:05;;;;;;;0.50;0.43;;;4.70;99.90;;;;;;5055528;28;20197;-70
2023/02/02 12:02:32;;;;;;;0.47;0.47;;;4.80;99.90;;;;;;5055308;28;20171;-70
2023/02/02 12:05:19;;;;;;;0.40;0.40;;;4.70;99.90;;;;;;5055443;28;20698;-70
2023/02/02 12:07:47;;;;;;;0.50;0.50;;;4.60;99.90;;;;;;5055472;28;20527;-70
2023/02/02 12:10:18;;;;;;;0.50;0.50;;;4.40;99.90;;;;;;5055282;28;20194;-70
2023/02/02 12:13:08;;;;;;;0.40;0.40;;;4.50;99.90;;;;;;5055153;28;20261;-70
2023/02/02 12:15:46;;;;;;;0.40;0.40;;;4.60;99.90;;;;;;5055312;28;20186;-70
2023/02/02 12:18:49;;;;;;;0.40;0.40;;;4.70;99.90;;;;;;5055302;28;20192;-70
2023/02/02 12:21:30;;;;;;;0.40;0.40;;;4.70;99.90;;;;;;5054988;28;20221;-70
2023/02/02 12:24:11;;;;;;;0.30;0.30;;;4.70;99.90;;;;;;5054998;28;20173;-70
2023/02/02 12:26:39;;;;;;;0.45;0.45;;;4.70;99.90;;;;;;5054922;28;20158;-70
2023/02/02 12:29:30;;;;;;;0.63;0.63;;;4.60;99.90;;;;;;5055181;28;20170;-70
2023/02/02 12:31:56;;;;;;;0.40;0.40;;;4.50;99.90;;;;;;5054719;28;20190;-70
2023/02/02 12:34:43;;;;;;;0.37;0.37;;;4.60;99.90;;;;;;5055053;28;20177;-70
2023/02/02 12:37:09;;;;;;;0.40;0.40;;;4.50;99.90;;;;;;5054733;28;20190;-70
2023/02/02 12:39:50;;;;;;;0.40;0.40;;;4.70;99.90;;;;;;5054650;28;20174;-70
2023/02/02 12:43:10;;;;;;;0.47;0.47;;;4.80;99.90;;;;;;5054637;28;20526;-70
2023/02/02 12:45:47;;;;;;;2.25;2.15;;;4.90;99.90;;;;;;5052605;28;20193;-70
2023/02/02 12:48:46;;;;;;;0.50;0.50;;;5.00;99.90;;;;;;5054186;28;20177;-70
2023/02/02 12:51:30;;;;;;;6.18;0.70;;;5.00;99.90;;;;;;5054584;28;20648;-70
2023/02/02 12:54:23;;;;;;;0.50;0.50;;;5.00;99.90;;;;;;5053120;28;20194;-70
2023/02/02 12:57:00;;;;;;;0.50;0.50;;;5.10;99.90;;;;;;5054689;28;20181;-70
2023/02/02 12:59:34;;;;;;;0.40;0.40;;;5.20;99.90;;;;;;5054564;28;20624;-70
2023/02/02 13:02:24;;;;;;;0.88;0.88;;;5.20;99.90;;;;;;5054097;28;20190;-70
2023/02/02 13:05:28;;;;;;;0.50;0.50;;;5.00;99.90;;;;;;5054309;28;20654;-70
2023/02/02 13:07:59;;;;;;;0.90;0.90;;;4.80;99.90;;;;;;5053336;28;20193;-70
2023/02/02 13:10:38;;;;;;;0.98;0.98;;;4.80;99.90;;;;;;5054251;28;20186;-70
2023/02/02 13:13:16;;;;;;;0.40;0.40;;;4.80;99.90;;;;;;5054326;28;20223;-70
2023/02/02 13:15:47;;;;;;;0.60;0.60;;;4.70;99.90;;;;;;5054310;28;20170;-70
2023/02/02 13:18:26;;;;;;;1.58;1.23;;;4.60;99.90;;;;;;5054382;28;20163;-70
2023/02/02 13:21:15;;;;;;;0.88;0.88;;;4.60;99.90;;;;;;5053901;28;20206;-70
2023/02/02 13:23:43;;;;;;;1.08;0.98;;;4.60;99.90;;;;;;5053809;28;20170;-70
2023/02/02 13:26:20;;;;;;;5.07;2.58;;;4.70;99.90;;;;;;5054157;28;20575;-70
2023/02/02 13:29:01;;;;;;;1.65;1.63;;;4.80;99.90;;;;;;5054024;28;20166;-71